createdAt,value
2018-04-29T00:00:29.766Z,24.23
2018-04-29T00:02:56.334Z,23.80
2018-04-29T00:05:22.818Z,24.23
2018-04-29T00:07:49.322Z,25.97
2018-04-29T00:10:15.840Z,23.07
2018-04-29T00:12:42.417Z,22.57
2018-04-29T00:15:09.756Z,21.97
2018-04-29T00:17:36.257Z,20.03
2018-04-29T00:20:02.788Z,21.53
2018-04-29T00:22:29.300Z,23.10
2018-04-29T00:24:55.832Z,28.47
2018-04-29T00:27:23.966Z,23.30
2018-04-29T00:29:50.479Z,22.07
2018-04-29T00:32:19.939Z,23.50
2018-04-29T00:34:46.494Z,20.80
2018-04-29T00:37:12.981Z,22.60
2018-04-29T00:39:39.511Z,24.03
2018-04-29T00:42:06.069Z,20.93
2018-04-29T00:44:32.581Z,21.97
2018-04-29T00:46:59.098Z,21.13
2018-04-29T00:49:25.654Z,24.63
2018-04-29T00:52:01.270Z,23.70
2018-04-29T00:54:27.756Z,21.63
2018-04-29T00:56:55.297Z,22.43
2018-04-29T00:59:22.012Z,21.93
2018-04-29T01:01:48.466Z,21.50
2018-04-29T01:04:15.336Z,25.67
2018-04-29T01:06:42.873Z,24.10
2018-04-29T01:09:09.384Z,24.60
2018-04-29T01:11:35.850Z,24.83
2018-04-29T01:14:02.332Z,23.57
2018-04-29T01:16:29.471Z,27.13
2018-04-29T01:18:56.698Z,22.10
2018-04-29T01:21:23.254Z,21.83
2018-04-29T01:23:50.559Z,24.90
2018-04-29T01:26:17.179Z,24.40
2018-04-29T01:28:43.719Z,22.87
2018-04-29T01:31:10.363Z,24.47
2018-04-29T01:33:36.864Z,25.63
2018-04-29T01:36:04.248Z,22.17
2018-04-29T01:38:30.786Z,23.27
2018-04-29T01:40:57.263Z,25.83
2018-04-29T01:43:23.775Z,22.27
2018-04-29T01:45:50.363Z,22.63
2018-04-29T01:48:17.640Z,23.53
2018-04-29T01:50:44.189Z,23.60
2018-04-29T01:53:10.685Z,23.90
2018-04-29T01:55:37.928Z,24.00
2018-04-29T01:58:04.502Z,21.47
2018-04-29T02:00:31.818Z,22.70
2018-04-29T02:02:58.389Z,24.60
2018-04-29T02:05:24.948Z,26.40
2018-04-29T02:07:52.274Z,21.77
2018-04-29T02:10:18.831Z,24.30
2018-04-29T02:12:45.458Z,28.40
2018-04-29T02:15:12.004Z,24.97
2018-04-29T02:17:38.593Z,25.03
2018-04-29T02:20:05.150Z,24.63
2018-04-29T02:22:31.642Z,23.70
2018-04-29T02:24:58.246Z,28.20
2018-04-29T02:27:24.866Z,27.60
2018-04-29T02:29:51.437Z,28.03
2018-04-29T02:32:18.639Z,23.40
2018-04-29T02:34:45.908Z,22.93
2018-04-29T02:37:12.430Z,27.37
2018-04-29T02:39:39.517Z,26.47
2018-04-29T02:42:06.070Z,28.37
2018-04-29T02:44:32.719Z,27.37
2018-04-29T02:46:59.352Z,25.00
2018-04-29T02:49:26.017Z,26.20
2018-04-29T02:51:52.662Z,30.67
2018-04-29T02:54:19.939Z,29.87
2018-04-29T02:56:46.553Z,34.20
2018-04-29T02:59:13.099Z,36.63
2018-04-29T03:01:40.383Z,31.00
2018-04-29T03:04:06.912Z,31.40
2018-04-29T03:06:33.567Z,32.07
2018-04-29T03:09:04.706Z,27.70
2018-04-29T03:11:31.263Z,25.93
2018-04-29T03:13:57.766Z,29.23
2018-04-29T03:16:24.266Z,28.53
2018-04-29T03:18:52.208Z,31.77
2018-04-29T03:21:18.719Z,27.33
2018-04-29T03:23:45.218Z,32.13
2018-04-29T03:26:12.689Z,32.33
2018-04-29T03:28:39.352Z,31.27
2018-04-29T03:31:06.950Z,29.87
2018-04-29T03:33:33.448Z,32.77
2018-04-29T03:36:00.718Z,37.70
2018-04-29T03:38:35.569Z,37.63
2018-04-29T03:41:03.028Z,34.90
2018-04-29T03:43:29.614Z,38.97
2018-04-29T03:45:56.165Z,34.50
2018-04-29T03:48:22.796Z,34.13
2018-04-29T03:50:50.036Z,36.37
2018-04-29T03:53:16.558Z,37.40
2018-04-29T03:55:43.187Z,36.87
2018-04-29T03:58:22.499Z,41.03
2018-04-29T04:01:02.036Z,34.50
2018-04-29T04:03:40.721Z,39.37
2018-04-29T04:06:07.288Z,40.10
2018-04-29T04:08:33.884Z,39.80
2018-04-29T04:11:00.412Z,40.13
2018-04-29T04:13:26.913Z,40.90
2018-04-29T04:15:54.327Z,42.63
2018-04-29T04:18:20.826Z,39.90
2018-04-29T04:20:48.096Z,37.60
2018-04-29T04:23:14.694Z,41.27
2018-04-29T04:25:41.944Z,43.57
2018-04-29T04:28:08.522Z,43.63
2018-04-29T04:30:35.128Z,43.73
2018-04-29T04:33:02.558Z,38.73
2018-04-29T04:35:29.116Z,40.47
2018-04-29T04:37:56.415Z,39.43
2018-04-29T04:40:23.033Z,44.17
2018-04-29T04:42:49.549Z,40.43
2018-04-29T04:45:17.589Z,40.90
2018-04-29T04:47:44.088Z,43.67
2018-04-29T04:50:10.743Z,42.83
2018-04-29T04:52:37.445Z,42.97
2018-04-29T04:55:04.871Z,42.43
2018-04-29T04:57:31.445Z,43.73
2018-04-29T04:59:58.133Z,47.40
2018-04-29T05:02:24.710Z,44.13
2018-04-29T05:04:51.353Z,48.33
2018-04-29T05:07:18.762Z,46.13
2018-04-29T05:09:45.344Z,42.93
2018-04-29T05:12:11.919Z,44.00
2018-04-29T05:14:38.593Z,44.67
2018-04-29T05:17:06.711Z,42.70
2018-04-29T05:19:33.419Z,47.63
2018-04-29T05:22:00.755Z,48.27
2018-04-29T05:24:27.457Z,46.13
2018-04-29T05:26:55.034Z,46.73
2018-04-29T05:29:21.655Z,48.97
2018-04-29T05:31:48.300Z,47.00
2018-04-29T05:34:15.157Z,50.90
2018-04-29T05:36:41.705Z,50.77
2018-04-29T05:39:08.263Z,52.73
2018-04-29T05:41:35.566Z,54.00
2018-04-29T05:44:02.152Z,51.60
2018-04-29T05:46:28.690Z,52.27
2018-04-29T05:48:55.212Z,53.77
2018-04-29T05:51:21.769Z,50.33
2018-04-29T05:53:48.408Z,55.67
2018-04-29T06:06:00.875Z,53.73
2018-04-29T06:08:29.878Z,53.90
2018-04-29T06:10:57.310Z,50.73
2018-04-29T06:13:23.851Z,55.50
2018-04-29T06:15:50.431Z,58.40
2018-04-29T06:18:17.112Z,59.27
2018-04-29T06:20:43.735Z,56.07
2018-04-29T06:23:10.390Z,55.57
2018-04-29T06:25:37.364Z,62.37
2018-04-29T06:28:04.003Z,58.13
2018-04-29T06:30:32.217Z,60.03
2018-04-29T06:32:58.778Z,59.30
2018-04-29T06:35:25.266Z,62.83
2018-04-29T06:37:52.554Z,69.77
2018-04-29T06:40:19.160Z,70.60
2018-04-29T06:42:45.783Z,59.60
2018-04-29T06:54:57.590Z,75.47
2018-04-29T06:57:24.156Z,70.73
2018-04-29T06:59:50.771Z,73.10
2018-04-29T07:02:17.429Z,66.60
2018-04-29T07:04:44.666Z,66.83
2018-04-29T07:07:14.238Z,61.43
2018-04-29T07:09:40.681Z,62.90
2018-04-29T07:12:07.119Z,65.57
2018-04-29T07:14:33.550Z,59.53
2018-04-29T07:16:59.969Z,64.50
2018-04-29T07:19:27.163Z,67.43
2018-04-29T07:21:53.603Z,69.37
2018-04-29T07:24:20.027Z,65.17
2018-04-29T07:26:46.451Z,63.37
2018-04-29T07:29:12.857Z,61.00
2018-04-29T07:31:39.295Z,62.43
2018-04-29T07:34:05.827Z,65.47
2018-04-29T07:36:32.415Z,62.83
2018-04-29T07:38:59.065Z,62.40
2018-04-29T07:41:26.427Z,61.23
2018-04-29T07:43:52.916Z,63.13
2018-04-29T07:46:19.547Z,69.97
2018-04-29T07:48:46.078Z,59.70
2018-04-29T07:51:13.531Z,68.50
2018-04-29T07:53:40.147Z,62.33
2018-04-29T07:56:07.543Z,69.00
2018-04-29T07:58:34.102Z,65.00
2018-04-29T08:01:00.631Z,64.17
2018-04-29T08:03:27.214Z,70.67
2018-04-29T08:05:53.793Z,70.10
2018-04-29T08:08:23.728Z,64.03
2018-04-29T08:10:50.372Z,62.97
2018-04-29T08:13:17.635Z,65.23
2018-04-29T08:15:44.570Z,62.63
2018-04-29T08:18:11.990Z,65.07
2018-04-29T08:20:38.514Z,61.40
2018-04-29T08:23:05.006Z,63.07
2018-04-29T08:25:32.291Z,65.27
2018-04-29T08:27:59.482Z,61.87
2018-04-29T08:30:25.926Z,58.27
2018-04-29T08:32:52.381Z,60.47
2018-04-29T08:35:18.834Z,61.97
2018-04-29T08:37:45.264Z,61.97
2018-04-29T08:40:11.711Z,66.57
2018-04-29T08:42:38.966Z,55.77
2018-04-29T08:45:05.393Z,58.57
2018-04-29T08:47:32.562Z,64.33
2018-04-29T08:49:59.006Z,60.73
2018-04-29T08:52:25.445Z,60.57
2018-04-29T08:54:51.887Z,57.50
2018-04-29T08:57:18.347Z,58.77
2018-04-29T08:59:44.788Z,60.50
2018-04-29T09:02:11.224Z,54.53
2018-04-29T09:04:37.704Z,57.43
2018-04-29T09:07:04.171Z,64.47
2018-04-29T09:09:30.607Z,57.53
2018-04-29T09:11:57.069Z,58.33
2018-04-29T09:14:24.264Z,63.27
2018-04-29T09:16:50.713Z,59.10
2018-04-29T09:19:17.169Z,58.30
2018-04-29T09:21:43.639Z,60.10
2018-04-29T09:24:10.053Z,54.97
2018-04-29T09:26:36.509Z,52.27
2018-04-29T09:29:03.737Z,60.70
2018-04-29T09:31:30.205Z,136.63
2018-04-29T09:33:56.649Z,54.03
2018-04-29T09:36:23.073Z,51.90
2018-04-29T09:38:49.555Z,59.20
2018-04-29T09:41:15.986Z,51.23
2018-04-29T09:43:42.553Z,55.23
2018-04-29T09:46:09.641Z,56.07
2018-04-29T09:48:36.106Z,51.57
2018-04-29T09:51:02.581Z,49.63
2018-04-29T09:53:30.075Z,54.30
2018-04-29T09:55:56.510Z,55.33
2018-04-29T09:58:23.974Z,50.33
2018-04-29T10:01:01.348Z,54.87
2018-04-29T10:03:27.814Z,55.70
2018-04-29T10:05:54.292Z,50.63
2018-04-29T10:08:22.706Z,49.60
2018-04-29T10:10:49.147Z,51.13
2018-04-29T10:13:15.576Z,52.90
2018-04-29T10:15:42.040Z,48.73
2018-04-29T10:18:08.605Z,51.23
2018-04-29T10:20:35.816Z,52.40
2018-04-29T10:23:02.246Z,52.13
2018-04-29T10:25:28.706Z,54.73
2018-04-29T10:27:55.140Z,48.63
2018-04-29T10:30:22.340Z,50.70
2018-04-29T10:32:48.858Z,50.10
2018-04-29T10:35:15.236Z,49.50
2018-04-29T10:37:41.899Z,55.30
2018-04-29T10:40:08.323Z,53.63
2018-04-29T10:42:34.808Z,49.93
2018-04-29T10:45:01.227Z,46.67
2018-04-29T10:47:28.812Z,48.87
2018-04-29T10:49:55.261Z,42.87
2018-04-29T10:52:21.744Z,43.23
2018-04-29T10:54:48.172Z,41.30
2018-04-29T10:57:15.389Z,41.73
2018-04-29T10:59:41.882Z,40.37
2018-04-29T11:02:08.394Z,38.37
2018-04-29T11:04:34.872Z,36.57
2018-04-29T11:07:03.392Z,37.03
2018-04-29T11:09:29.936Z,35.33
2018-04-29T11:11:56.384Z,35.90
2018-04-29T11:14:22.884Z,31.43
2018-04-29T11:16:53.433Z,33.70
2018-04-29T11:19:19.977Z,32.77
2018-04-29T11:21:46.516Z,30.23
2018-04-29T11:24:13.848Z,31.33
2018-04-29T11:26:40.520Z,30.53
2018-04-29T11:29:07.100Z,30.00
2018-04-29T11:31:33.677Z,30.23
2018-04-29T11:34:00.264Z,36.93
2018-04-29T11:36:26.894Z,29.00
2018-04-29T11:38:53.424Z,34.90
2018-04-29T11:41:19.979Z,35.13
2018-04-29T11:43:46.554Z,28.23
2018-04-29T11:46:13.112Z,29.33
2018-04-29T11:48:41.412Z,28.13
2018-04-29T11:51:07.942Z,28.33
2018-04-29T11:53:35.243Z,31.27
2018-04-29T11:56:01.790Z,30.40
2018-04-29T11:58:30.498Z,29.93
2018-04-29T12:00:57.185Z,26.20
2018-04-29T12:03:23.722Z,29.60
2018-04-29T12:05:50.404Z,26.77
2018-04-29T12:08:17.019Z,28.17
2018-04-29T12:10:43.561Z,25.27
2018-04-29T12:13:10.189Z,26.57
2018-04-29T12:15:36.749Z,33.30
2018-04-29T12:18:03.338Z,26.50
2018-04-29T12:20:30.001Z,26.33
2018-04-29T12:22:56.527Z,30.03
2018-04-29T12:25:24.015Z,27.40
2018-04-29T12:27:52.147Z,31.57
2018-04-29T12:30:18.845Z,32.47
2018-04-29T12:32:46.397Z,26.80
2018-04-29T12:35:13.024Z,25.73
2018-04-29T12:37:40.768Z,25.90
2018-04-29T12:40:07.339Z,26.87
2018-04-29T12:42:34.065Z,27.20
2018-04-29T12:45:00.682Z,28.43
2018-04-29T12:47:32.091Z,27.40
2018-04-29T12:49:59.973Z,29.40
2018-04-29T12:52:27.173Z,28.00
2018-04-29T12:54:53.751Z,28.63
2018-04-29T12:57:20.453Z,28.63
2018-04-29T12:59:47.775Z,26.40
2018-04-29T13:02:14.212Z,25.77
2018-04-29T13:04:40.638Z,28.40
2018-04-29T13:07:08.117Z,30.17
2018-04-29T13:09:34.543Z,27.07
2018-04-29T13:12:00.985Z,30.93
2018-04-29T13:14:27.402Z,26.50
2018-04-29T13:16:54.053Z,28.17
2018-04-29T13:19:20.529Z,27.10
2018-04-29T13:21:47.739Z,29.83
2018-04-29T13:24:14.149Z,28.73
2018-04-29T13:26:40.576Z,29.27
2018-04-29T13:29:07.006Z,27.80
2018-04-29T13:31:33.452Z,34.70
2018-04-29T13:33:59.886Z,29.83
2018-04-29T13:36:26.326Z,29.93
2018-04-29T13:38:59.137Z,27.17
2018-04-29T13:41:25.570Z,27.47
2018-04-29T13:43:52.016Z,28.67
2018-04-29T13:46:19.222Z,27.87
2018-04-29T13:48:49.786Z,28.43
2018-04-29T13:51:16.263Z,29.07
2018-04-29T13:53:43.096Z,29.77
2018-04-29T13:56:10.313Z,28.83
2018-04-29T13:58:38.886Z,27.00
2018-04-29T14:01:08.599Z,28.17
2018-04-29T14:03:42.726Z,29.47
2018-04-29T14:06:09.166Z,29.20
2018-04-29T14:08:35.685Z,30.10
2018-04-29T14:11:02.164Z,29.33
2018-04-29T14:13:28.618Z,29.90
2018-04-29T14:15:55.061Z,33.03
2018-04-29T14:18:21.503Z,29.37
2018-04-29T14:20:51.221Z,30.00
2018-04-29T14:23:18.464Z,28.33
2018-04-29T14:25:45.614Z,28.23
2018-04-29T14:28:16.486Z,30.73
2018-04-29T14:30:42.927Z,30.27
2018-04-29T14:33:09.372Z,31.67
2018-04-29T14:35:36.548Z,32.53
2018-04-29T14:38:04.061Z,31.60
2018-04-29T14:40:30.637Z,29.40
2018-04-29T14:42:57.091Z,33.33
2018-04-29T14:45:23.559Z,30.67
2018-04-29T14:47:50.003Z,30.80
2018-04-29T14:50:16.439Z,30.20
2018-04-29T14:52:42.902Z,32.30
2018-04-29T14:55:10.077Z,29.57
2018-04-29T14:57:36.545Z,31.60
2018-04-29T15:00:03.013Z,29.07
2018-04-29T15:02:29.566Z,29.80
2018-04-29T15:04:56.443Z,29.00
2018-04-29T15:07:26.109Z,29.43
2018-04-29T15:09:53.297Z,31.03
2018-04-29T15:12:19.763Z,33.30
2018-04-29T15:14:46.249Z,33.17
2018-04-29T15:17:12.869Z,29.57
2018-04-29T15:19:49.011Z,31.30
2018-04-29T15:22:16.221Z,31.33
2018-04-29T15:24:42.655Z,30.77
2018-04-29T15:27:09.239Z,30.87
2018-04-29T15:29:36.457Z,33.13
2018-04-29T15:32:02.950Z,33.50
2018-04-29T15:34:29.402Z,30.77
2018-04-29T15:36:55.854Z,31.30
2018-04-29T15:39:22.462Z,31.97
2018-04-29T15:41:49.052Z,30.60
2018-04-29T15:44:15.564Z,35.17
2018-04-29T15:46:42.959Z,32.57
2018-04-29T15:49:09.407Z,31.63
2018-04-29T15:51:35.858Z,30.10
2018-04-29T15:54:02.325Z,30.57
2018-04-29T15:56:29.631Z,32.73
2018-04-29T15:58:56.202Z,30.87
2018-04-29T16:01:22.697Z,32.63
2018-04-29T16:03:49.131Z,37.47
2018-04-29T16:06:15.697Z,32.97
2018-04-29T16:08:42.160Z,33.67
2018-04-29T16:11:09.368Z,35.37
2018-04-29T16:13:35.840Z,37.07
2018-04-29T16:16:02.315Z,37.07
2018-04-29T16:18:33.099Z,38.27
2018-04-29T16:21:00.301Z,31.50
2018-04-29T16:23:26.773Z,37.97
2018-04-29T16:25:53.280Z,33.53
2018-04-29T16:28:19.865Z,34.50
2018-04-29T16:30:47.051Z,31.90
2018-04-29T16:33:13.525Z,35.27
2018-04-29T16:35:40.004Z,34.70
2018-04-29T16:38:07.289Z,31.13
2018-04-29T16:40:34.432Z,33.30
2018-04-29T16:43:00.879Z,30.87
2018-04-29T16:45:27.363Z,33.37
2018-04-29T16:48:01.757Z,32.53
2018-04-29T16:50:28.203Z,32.50
2018-04-29T16:52:55.433Z,32.93
2018-04-29T16:55:21.901Z,32.20
2018-04-29T16:57:49.166Z,36.47
2018-04-29T17:00:16.346Z,32.50
2018-04-29T17:02:42.784Z,32.10
2018-04-29T17:05:09.252Z,36.80
2018-04-29T17:07:35.708Z,33.37
2018-04-29T17:10:02.943Z,32.77
2018-04-29T17:12:29.399Z,34.90
2018-04-29T17:14:56.619Z,35.00
2018-04-29T17:17:23.271Z,33.93
2018-04-29T17:19:49.726Z,35.10
2018-04-29T17:22:16.952Z,37.30
2018-04-29T17:24:43.387Z,35.17
2018-04-29T17:27:13.100Z,39.67
2018-04-29T17:29:39.546Z,36.80
2018-04-29T17:32:06.794Z,37.67
2018-04-29T17:34:33.247Z,37.37
2018-04-29T17:37:06.671Z,36.80
2018-04-29T17:39:33.128Z,39.57
2018-04-29T17:41:59.587Z,40.20
2018-04-29T17:44:26.021Z,42.80
2018-04-29T17:46:54.629Z,42.90
2018-04-29T17:49:21.897Z,44.67
2018-04-29T17:51:48.365Z,46.30
2018-04-29T17:54:14.843Z,46.83
2018-04-29T17:56:42.075Z,46.07
2018-04-29T17:59:08.512Z,48.07
2018-04-29T18:01:34.998Z,46.70
2018-04-29T18:04:01.509Z,46.57
2018-04-29T18:06:28.023Z,48.10
2018-04-29T18:08:54.457Z,53.17
2018-04-29T18:11:20.960Z,51.83
2018-04-29T18:13:47.414Z,52.43
2018-04-29T18:16:13.863Z,53.13
2018-04-29T18:18:45.025Z,54.03
2018-04-29T18:21:12.256Z,53.70
2018-04-29T18:23:38.682Z,53.70
2018-04-29T18:26:05.152Z,52.80
2018-04-29T18:28:36.054Z,54.30
2018-04-29T18:31:02.520Z,53.30
2018-04-29T18:33:29.710Z,54.73
2018-04-29T18:35:56.192Z,57.93
2018-04-29T18:38:30.390Z,60.37
2018-04-29T18:40:56.827Z,56.07
2018-04-29T18:43:23.282Z,56.17
2018-04-29T18:45:50.516Z,59.00
2018-04-29T18:48:22.503Z,59.00
2018-04-29T18:50:49.849Z,57.17
2018-04-29T18:53:16.310Z,45.77
2018-04-29T18:55:42.937Z,33.27
2018-04-29T18:58:24.638Z,22.77
2018-04-29T19:00:51.111Z,28.27
2018-04-29T19:03:17.640Z,29.90
2018-04-29T19:05:46.127Z,23.10
2018-04-29T19:08:25.342Z,23.23
2018-04-29T19:10:51.886Z,27.73
2018-04-29T19:13:18.400Z,26.40
2018-04-29T19:15:45.033Z,30.73
2018-04-29T19:18:14.951Z,31.53
2018-04-29T19:20:41.539Z,34.33
2018-04-29T19:23:08.047Z,31.37
2018-04-29T19:25:34.712Z,47.13
2018-04-29T19:28:01.338Z,81.47
2018-04-29T19:30:27.993Z,66.13
2018-04-29T19:32:54.615Z,92.47
2018-04-29T19:35:21.347Z,73.47
2018-04-29T19:37:53.744Z,99.80
2018-04-29T19:40:20.535Z,87.87
2018-04-29T19:42:47.129Z,110.63
2018-04-29T19:45:13.862Z,101.43
2018-04-29T19:47:42.449Z,103.97
2018-04-29T19:50:09.177Z,85.40
2018-04-29T19:52:35.798Z,66.50
2018-04-29T19:55:02.476Z,94.50
2018-04-29T19:57:31.009Z,73.67
2018-04-29T19:59:57.833Z,67.83
2018-04-29T20:02:24.367Z,67.50
2018-04-29T20:04:51.241Z,103.27
2018-04-29T20:07:19.771Z,87.80
2018-04-29T20:09:46.388Z,107.87
2018-04-29T20:12:13.015Z,70.40
2018-04-29T20:14:39.627Z,76.03
2018-04-29T20:17:07.197Z,77.00
2018-04-29T20:19:33.712Z,75.80
2018-04-29T20:22:01.143Z,89.77
2018-04-29T20:24:28.304Z,87.17
2018-04-29T20:26:59.344Z,95.17
2018-04-29T20:29:26.677Z,105.57
2018-04-29T20:31:54.041Z,95.33
2018-04-29T20:34:20.766Z,100.60
2018-04-29T20:36:47.352Z,166.30
2018-04-29T20:39:13.967Z,112.00
2018-04-29T20:41:40.569Z,84.00
2018-04-29T20:44:07.119Z,77.00
2018-04-29T20:46:34.611Z,92.80
2018-04-29T20:49:01.247Z,109.27
2018-04-29T20:51:27.871Z,113.77
2018-04-29T20:53:55.541Z,88.67
2018-04-29T20:56:23.164Z,92.77
2018-04-29T20:58:52.250Z,86.57
2018-04-29T21:01:19.895Z,88.60
2018-04-29T21:03:46.756Z,110.43
2018-04-29T21:06:13.305Z,84.33
2018-04-29T21:08:46.429Z,55.03
2018-04-29T21:11:13.063Z,103.43
2018-04-29T21:13:40.466Z,73.57
2018-04-29T21:16:07.268Z,71.00
2018-04-29T21:18:34.677Z,106.63
2018-04-29T21:21:01.290Z,95.53
2018-04-29T21:23:28.245Z,90.20
2018-04-29T21:25:54.810Z,107.47
2018-04-29T21:28:25.706Z,72.97
2018-04-29T21:30:52.746Z,76.07
2018-04-29T21:33:19.313Z,113.30
2018-04-29T21:35:45.991Z,76.27
2018-04-29T21:38:17.536Z,143.03
2018-04-29T21:40:44.174Z,112.17
2018-04-29T21:43:10.891Z,115.37
2018-04-29T21:45:38.558Z,101.30
2018-04-29T21:48:05.609Z,98.13
2018-04-29T21:50:32.146Z,116.60
2018-04-29T21:52:59.193Z,114.57
2018-04-29T21:55:25.847Z,140.63
2018-04-29T21:57:52.621Z,125.53
2018-04-29T22:00:19.288Z,104.63
2018-04-29T22:02:45.863Z,106.73
2018-04-29T22:05:12.731Z,104.87
2018-04-29T22:07:42.853Z,145.50
2018-04-29T22:10:09.408Z,114.97
2018-04-29T22:12:35.978Z,132.40
2018-04-29T22:15:02.606Z,161.40
2018-04-29T22:17:29.349Z,86.97
2018-04-29T22:19:55.857Z,85.93
2018-04-29T22:22:22.477Z,79.33
2018-04-29T22:24:49.759Z,121.97
2018-04-29T22:27:23.329Z,120.37
2018-04-29T22:29:49.898Z,109.27
2018-04-29T22:32:16.449Z,102.77
2018-04-29T22:34:43.038Z,142.03
2018-04-29T22:37:10.666Z,136.57
2018-04-29T22:39:37.339Z,116.20
2018-04-29T22:42:04.723Z,105.97
2018-04-29T22:44:31.323Z,118.70
2018-04-29T22:46:59.014Z,112.13
2018-04-29T22:49:25.558Z,145.80
2018-04-29T22:51:52.198Z,190.30
2018-04-29T22:54:18.753Z,106.87
2018-04-29T22:56:45.323Z,149.00
2018-04-29T22:59:11.862Z,92.90
2018-04-29T23:01:38.363Z,119.73
2018-04-29T23:04:04.969Z,103.73
2018-04-29T23:06:31.613Z,130.20
2018-04-29T23:09:09.115Z,89.30
2018-04-29T23:11:35.789Z,142.53
2018-04-29T23:14:02.371Z,102.20
2018-04-29T23:16:28.900Z,100.60
2018-04-29T23:19:01.374Z,96.20
2018-04-29T23:21:27.947Z,144.03
2018-04-29T23:23:54.460Z,147.47
2018-04-29T23:26:21.011Z,210.40
2018-04-29T23:28:47.874Z,83.33
2018-04-29T23:31:14.401Z,193.70
2018-04-29T23:33:40.982Z,116.53
2018-04-29T23:36:07.515Z,163.80
2018-04-29T23:38:51.213Z,82.83
2018-04-29T23:41:17.863Z,111.27
2018-04-29T23:43:44.407Z,77.53
2018-04-29T23:46:10.990Z,94.90
2018-04-29T23:48:46.666Z,101.20
2018-04-29T23:51:13.285Z,123.60
2018-04-29T23:53:39.899Z,93.13
2018-04-29T23:56:07.209Z,161.30
2018-04-29T23:58:38.925Z,109.30
